Maracena, Spain
Current Conditions -  °F | °C
As of 6:30 AM on Tuesday 27 Jan 2015 (Local Time) from LEGR Reporting Station
Clear Clear  
Wind Chill: 30°   Ceiling: Unl
Heat Index: 30°   Visibility: 6mi
Dew Point: 28°   Wind: 0mph
Humidity: 93%   Direction: NA
Pressure: 30.33"   Gusts: NA
Location:  37.21°N, 3.63°W
Report Text: LEGR 270530Z 00000KT CAVOK M01/M02 Q1027
Loading
Personal Weather Stations






























Interactive Weather Map New forecast layout! Learn more

10-Day Weather Forecast

Advertisements
Track Severe Weather on mobile